Terminal Aerodrome Forecast
Issued by NWS

Home | Current Version | Previous Version | Text Only | Print | Product List | Glossary On
Versions: 1 2 3 4 5 6 7 8 9 10 11 12 13 14
677
FTUS44 KCRP 101140
TAFLRD
TAF
KLRD 101140Z 1012/1112 03004KT P6SM OVC025
     FM102000 03005KT P6SM OVC035
     FM110000 13005KT P6SM OVC015
     FM110600 VRB02KT 6SM BR OVC006=

USA.gov is the U.S. government's official web portal to all federal, state and local government web resources and services.